Time;durP1;ratioP1;P1;durP2;ratioP2;P2;SDS_P1;SDS_P2;PMS_P1;PMS_P2;Temp;Humidity;BMP_temperature;BMP_pressure;BME280_temperature;BME280_humidity;BME280_pressure;Samples;Min_cycle;Max_cycle;Signal;HPM_P1;HPM_P2
2022/11/14 00:00:02;;;;;;;47.08;29.70;;;6.90;99.90;;;;;;2032961;29;20044;-69
2022/11/14 00:01:21;;;;;;;46.33;29.60;;;6.90;99.90;;;;;;2032900;29;20036;-70
2022/11/14 00:02:41;;;;;;;45.90;29.63;;;6.90;99.90;;;;;;2033155;29;20103;-70
2022/11/14 00:04:00;;;;;;;47.13;29.45;;;7.00;99.90;;;;;;2032818;29;20028;-71
2022/11/14 00:05:20;;;;;;;47.50;29.52;;;6.90;99.90;;;;;;2032769;29;20040;-71
2022/11/14 00:06:39;;;;;;;45.25;28.42;;;6.90;99.90;;;;;;2032238;29;20044;-71
2022/11/14 00:07:58;;;;;;;44.60;28.05;;;6.90;99.90;;;;;;2032507;29;20040;-70
2022/11/14 00:09:18;;;;;;;48.88;30.35;;;6.90;99.90;;;;;;2040336;29;20027;-70
2022/11/14 00:10:37;;;;;;;45.10;27.85;;;6.90;99.90;;;;;;2035620;29;20036;-70
2022/11/14 00:11:56;;;;;;;45.22;28.92;;;6.80;99.90;;;;;;2032950;29;20032;-71
2022/11/14 00:13:17;;;;;;;45.83;29.15;;;6.90;99.90;;;;;;2032628;29;20452;-71
2022/11/14 00:14:37;;;;;;;46.35;28.92;;;6.90;99.90;;;;;;2032862;29;20040;-69
2022/11/14 00:15:56;;;;;;;47.00;28.48;;;6.90;99.90;;;;;;2033129;29;20032;-71
2022/11/14 00:17:15;;;;;;;45.05;28.02;;;6.90;99.90;;;;;;2032915;29;20044;-69
2022/11/14 00:18:34;;;;;;;48.63;28.88;;;6.90;99.90;;;;;;2032903;29;20040;-70
2022/11/14 00:19:54;;;;;;;44.50;28.13;;;6.90;99.90;;;;;;2032677;29;20088;-70
2022/11/14 00:21:13;;;;;;;45.80;28.85;;;6.80;99.90;;;;;;2032257;29;20048;-70
2022/11/14 00:22:32;;;;;;;47.78;29.42;;;6.80;99.90;;;;;;2039823;29;20474;-68
2022/11/14 00:23:52;;;;;;;45.25;27.30;;;6.80;99.90;;;;;;2035418;29;20067;-69
2022/11/14 00:25:11;;;;;;;47.72;29.67;;;6.80;99.90;;;;;;2032716;29;20048;-71
2022/11/14 00:26:30;;;;;;;49.33;29.38;;;6.70;99.90;;;;;;2032473;29;20036;-70
2022/11/14 00:27:49;;;;;;;49.08;30.17;;;6.80;99.90;;;;;;2032444;29;20036;-70
2022/11/14 00:29:11;;;;;;;46.65;28.15;;;6.70;99.90;;;;;;2032553;29;20032;-70
2022/11/14 00:30:30;;;;;;;47.15;29.85;;;6.70;99.90;;;;;;2032365;29;20044;-69
2022/11/14 00:31:49;;;;;;;48.88;30.05;;;6.70;99.90;;;;;;2035012;29;20032;-70
2022/11/14 00:33:08;;;;;;;42.28;27.58;;;6.70;99.90;;;;;;2035330;29;20024;-68
2022/11/14 00:34:27;;;;;;;43.65;27.23;;;6.60;99.90;;;;;;2032877;29;20091;-68
2022/11/14 00:35:51;;;;;;;47.38;29.58;;;6.60;99.90;;;;;;2032554;29;20473;-70
2022/11/14 00:37:11;;;;;;;44.08;27.98;;;6.60;99.90;;;;;;2034258;29;20044;-71
2022/11/14 00:38:30;;;;;;;44.20;27.77;;;6.60;99.90;;;;;;2032476;29;20044;-70
2022/11/14 00:39:49;;;;;;;45.42;28.30;;;6.60;99.90;;;;;;2032500;29;20036;-71
2022/11/14 00:41:08;;;;;;;46.88;29.85;;;6.60;99.90;;;;;;2032132;29;20511;-71
2022/11/14 00:42:27;;;;;;;46.80;29.25;;;6.60;99.90;;;;;;2032213;29;20135;-69
2022/11/14 00:43:47;;;;;;;48.58;29.25;;;6.60;99.90;;;;;;2032312;29;20040;-70
2022/11/14 00:45:06;;;;;;;45.17;27.83;;;6.60;99.90;;;;;;2032553;29;20028;-70
2022/11/14 00:46:25;;;;;;;49.40;30.88;;;6.60;99.90;;;;;;2032254;29;20079;-70
2022/11/14 00:47:44;;;;;;;48.63;28.88;;;6.60;99.90;;;;;;2032160;29;20060;-70
2022/11/14 00:49:04;;;;;;;48.00;29.33;;;6.50;99.90;;;;;;2032531;29;20896;-70
2022/11/14 00:50:23;;;;;;;48.42;29.63;;;6.50;99.90;;;;;;2039744;29;20039;-69
2022/11/14 00:51:42;;;;;;;46.13;29.40;;;6.60;99.90;;;;;;2035590;29;20024;-71
2022/11/14 00:53:01;;;;;;;43.53;27.63;;;6.60;99.90;;;;;;2032647;29;20040;-71
2022/11/14 00:54:21;;;;;;;44.50;28.23;;;6.60;99.90;;;;;;2039922;29;20086;-69
2022/11/14 00:55:41;;;;;;;42.03;26.40;;;6.60;99.90;;;;;;2035645;29;20044;-68
2022/11/14 00:57:00;;;;;;;47.25;29.02;;;6.50;99.90;;;;;;2032583;29;20040;-69
2022/11/14 00:58:19;;;;;;;46.40;28.83;;;6.50;99.90;;;;;;2032234;29;20043;-70
2022/11/14 00:59:38;;;;;;;49.22;29.33;;;6.50;99.90;;;;;;2032369;29;20024;-70
2022/11/14 01:00:57;;;;;;;49.10;29.65;;;6.50;99.90;;;;;;2031984;29;20051;-70
2022/11/14 01:02:17;;;;;;;47.05;29.20;;;6.50;99.90;;;;;;2032215;29;20040;-71
2022/11/14 01:03:36;;;;;;;47.92;29.08;;;6.50;99.90;;;;;;2032392;29;20732;-69
2022/11/14 01:04:55;;;;;;;46.08;29.23;;;6.60;99.90;;;;;;2032216;29;20039;-69
2022/11/14 01:06:15;;;;;;;45.28;28.90;;;6.60;99.90;;;;;;2032060;29;20044;-70
2022/11/14 01:07:34;;;;;;;45.72;28.33;;;6.60;99.90;;;;;;2032246;29;20059;-70
2022/11/14 01:08:53;;;;;;;46.83;28.90;;;6.60;99.90;;;;;;2032305;29;20056;-70
2022/11/14 01:10:12;;;;;;;40.95;26.73;;;6.60;99.90;;;;;;2032295;29;20546;-70
2022/11/14 01:11:31;;;;;;;47.17;29.75;;;6.60;99.90;;;;;;2032241;29;20123;-70
2022/11/14 01:12:50;;;;;;;49.15;29.38;;;6.50;99.90;;;;;;2039512;29;20032;-70
2022/11/14 01:14:10;;;;;;;46.65;29.02;;;6.60;99.90;;;;;;2034631;29;20040;-69
2022/11/14 01:15:29;;;;;;;44.17;27.88;;;6.60;99.90;;;;;;2032295;29;20036;-70
2022/11/14 01:16:48;;;;;;;45.25;28.35;;;6.60;99.90;;;;;;2032223;29;20036;-69
2022/11/14 01:18:13;;;;;;;44.72;28.73;;;6.60;99.90;;;;;;2032186;29;20048;-69
2022/11/14 01:19:32;;;;;;;45.15;28.55;;;6.60;99.90;;;;;;2039698;29;20063;-70
2022/11/14 01:20:51;;;;;;;45.53;28.08;;;6.60;99.90;;;;;;2039166;29;20047;-70
2022/11/14 01:22:11;;;;;;;44.53;29.23;;;6.60;99.90;;;;;;2034970;29;20043;-70
2022/11/14 01:23:31;;;;;;;43.17;27.15;;;6.60;99.90;;;;;;2032134;29;20040;-70
2022/11/14 01:24:50;;;;;;;44.95;28.52;;;6.60;99.90;;;;;;2032133;29;20063;-71
2022/11/14 01:26:12;;;;;;;44.05;27.67;;;6.60;99.90;;;;;;2032234;29;20052;-70
2022/11/14 01:27:31;;;;;;;45.35;27.25;;;6.70;99.90;;;;;;2032306;29;20036;-70
2022/11/14 01:28:52;;;;;;;44.08;28.20;;;6.70;99.90;;;;;;2032005;29;20048;-69
2022/11/14 01:30:12;;;;;;;43.88;27.52;;;6.60;99.90;;;;;;2031991;29;20036;-70
2022/11/14 01:31:31;;;;;;;44.58;27.75;;;6.70;99.90;;;;;;2032120;29;20044;-70
2022/11/14 01:32:50;;;;;;;43.50;27.35;;;6.70;99.90;;;;;;2032081;29;20032;-69
2022/11/14 01:34:09;;;;;;;43.05;27.30;;;6.70;99.90;;;;;;2032107;29;20048;-70
2022/11/14 01:35:29;;;;;;;44.17;27.33;;;6.70;99.90;;;;;;2032122;29;20032;-69
2022/11/14 01:36:48;;;;;;;42.07;26.77;;;6.70;99.90;;;;;;2032188;29;20063;-69
2022/11/14 01:38:13;;;;;;;42.47;27.23;;;6.80;99.90;;;;;;2031980;29;20264;-70
2022/11/14 01:39:32;;;;;;;41.75;27.00;;;6.90;99.90;;;;;;2031934;29;20123;-70
2022/11/14 01:40:51;;;;;;;42.00;25.40;;;6.90;99.90;;;;;;2038791;29;20032;-70
2022/11/14 01:42:10;;;;;;;42.03;26.20;;;6.90;99.90;;;;;;2034702;29;20044;-69
2022/11/14 01:43:32;;;;;;;42.92;26.70;;;6.90;99.90;;;;;;2039195;29;20031;-69
2022/11/14 01:44:52;;;;;;;41.25;26.20;;;6.90;99.90;;;;;;2034313;29;20420;-69
2022/11/14 01:46:36;;;;;;;42.83;26.60;;;6.90;99.90;;;;;;2031877;29;20040;-69
2022/11/14 01:47:56;;;;;;;42.13;26.17;;;7.00;99.90;;;;;;2031916;29;20040;-69
2022/11/14 01:49:31;;;;;;;39.40;24.85;;;7.00;99.90;;;;;;2031994;29;20032;-69
2022/11/14 01:50:55;;;;;;;38.55;24.48;;;7.00;99.90;;;;;;2031756;29;20036;-69
2022/11/14 01:52:23;;;;;;;42.63;26.40;;;7.00;99.90;;;;;;2032118;29;20463;-69
2022/11/14 01:53:44;;;;;;;38.45;24.90;;;7.00;99.90;;;;;;2031975;29;20040;-69
2022/11/14 01:55:09;;;;;;;37.70;24.92;;;7.00;99.90;;;;;;2031981;29;20040;-69
2022/11/14 01:56:32;;;;;;;41.35;25.83;;;7.00;99.90;;;;;;2031405;29;20063;-68
2022/11/14 01:57:51;;;;;;;41.10;25.75;;;7.00;99.90;;;;;;2031825;29;20028;-69
2022/11/14 01:59:16;;;;;;;39.15;24.55;;;7.00;99.90;;;;;;2039184;29;20044;-68
2022/11/14 02:00:36;;;;;;;40.13;25.17;;;6.90;99.90;;;;;;2033933;29;20566;-69
2022/11/14 02:01:59;;;;;;;38.03;24.48;;;7.00;99.90;;;;;;2031868;29;20044;-69
2022/11/14 02:03:19;;;;;;;38.55;24.83;;;7.00;99.90;;;;;;2031929;29;20032;-68
2022/11/14 02:04:42;;;;;;;39.50;25.20;;;7.00;99.90;;;;;;2031806;29;20036;-70
2022/11/14 02:06:03;;;;;;;36.95;24.52;;;7.10;99.90;;;;;;2031879;29;20024;-69
2022/11/14 02:07:26;;;;;;;36.47;24.20;;;7.10;99.90;;;;;;2031775;29;20044;-69
2022/11/14 02:08:46;;;;;;;39.42;25.17;;;7.10;99.90;;;;;;2031758;29;20059;-68
2022/11/14 02:10:16;;;;;;;40.40;25.17;;;7.00;99.90;;;;;;2031875;29;20067;-69
2022/11/14 02:11:39;;;;;;;38.95;24.95;;;7.00;99.90;;;;;;2031941;29;20028;-69
2022/11/14 02:12:59;;;;;;;36.35;24.13;;;7.00;99.90;;;;;;2031937;29;20048;-68
2022/11/14 02:14:18;;;;;;;36.53;23.73;;;7.00;99.90;;;;;;2031609;29;20045;-68
2022/11/14 02:15:38;;;;;;;37.20;23.98;;;6.90;99.90;;;;;;2031778;29;20040;-69
2022/11/14 02:16:57;;;;;;;37.70;24.15;;;6.90;99.90;;;;;;2031625;29;20503;-68
2022/11/14 02:18:16;;;;;;;37.90;24.73;;;6.90;99.90;;;;;;2038782;29;20051;-69
2022/11/14 02:19:48;;;;;;;38.92;24.33;;;6.90;99.90;;;;;;2034765;29;20410;-69
2022/11/14 02:21:10;;;;;;;37.70;24.45;;;6.90;99.90;;;;;;2030901;29;20075;-69
2022/11/14 02:22:29;;;;;;;38.47;24.50;;;6.80;99.90;;;;;;2031526;29;20044;-69
2022/11/14 02:23:48;;;;;;;38.58;24.52;;;6.80;99.90;;;;;;2031791;29;20039;-68
2022/11/14 02:25:09;;;;;;;37.40;24.13;;;6.90;99.90;;;;;;2031730;29;20070;-69
2022/11/14 02:26:28;;;;;;;38.50;24.10;;;6.90;99.90;;;;;;2031252;29;20717;-69
2022/11/14 02:27:49;;;;;;;36.92;23.77;;;6.90;99.90;;;;;;2031507;29;20040;-68
2022/11/14 02:29:10;;;;;;;35.42;23.02;;;6.90;99.90;;;;;;2031693;29;20040;-69
2022/11/14 02:30:30;;;;;;;35.63;23.45;;;6.90;99.90;;;;;;2030967;29;20669;-70
2022/11/14 02:31:49;;;;;;;36.33;23.40;;;6.90;99.90;;;;;;2031573;29;20036;-69
2022/11/14 02:33:08;;;;;;;32.90;22.35;;;6.90;99.90;;;;;;2031786;29;20040;-69
2022/11/14 02:34:27;;;;;;;38.03;23.70;;;6.80;99.90;;;;;;2031641;29;20087;-69
2022/11/14 02:35:47;;;;;;;37.25;23.95;;;6.80;99.90;;;;;;2031616;29;20044;-69
2022/11/14 02:37:07;;;;;;;36.67;24.00;;;6.80;99.90;;;;;;2031458;29;20032;-68
2022/11/14 02:38:26;;;;;;;37.65;23.85;;;6.80;99.90;;;;;;2031526;29;20044;-69
2022/11/14 02:39:45;;;;;;;36.00;22.85;;;6.70;99.90;;;;;;2031606;29;20040;-69
2022/11/14 02:41:04;;;;;;;33.20;22.50;;;6.70;99.90;;;;;;2038662;29;20088;-69
2022/11/14 02:42:23;;;;;;;36.88;23.73;;;6.60;99.90;;;;;;2034490;29;20035;-70
2022/11/14 02:43:43;;;;;;;33.53;22.73;;;6.60;99.90;;;;;;2031541;29;20036;-70
2022/11/14 02:45:02;;;;;;;36.58;23.88;;;6.60;99.90;;;;;;2031728;29;20040;-71
2022/11/14 02:46:21;;;;;;;37.10;23.90;;;6.60;99.90;;;;;;2038644;29;20490;-69
2022/11/14 02:47:40;;;;;;;38.60;24.60;;;6.60;99.90;;;;;;2034539;29;20040;-70
2022/11/14 02:48:59;;;;;;;39.42;24.73;;;6.60;99.90;;;;;;2031747;29;20109;-70
2022/11/14 02:50:19;;;;;;;35.58;23.20;;;6.60;99.90;;;;;;2031550;29;20557;-69
2022/11/14 02:51:38;;;;;;;32.95;22.23;;;6.60;99.90;;;;;;2031667;29;20603;-70
2022/11/14 02:52:57;;;;;;;35.47;22.67;;;6.60;99.90;;;;;;2031587;29;20036;-70
2022/11/14 02:54:16;;;;;;;40.97;25.52;;;6.50;99.90;;;;;;2031418;29;20028;-69
2022/11/14 02:55:35;;;;;;;39.60;25.20;;;6.60;99.90;;;;;;2031492;29;20044;-70
2022/11/14 02:56:54;;;;;;;38.60;24.92;;;6.60;99.90;;;;;;2031630;29;20470;-70
2022/11/14 02:58:14;;;;;;;36.85;24.83;;;6.60;99.90;;;;;;2031344;29;20506;-70
2022/11/14 02:59:33;;;;;;;37.22;23.80;;;6.70;99.90;;;;;;2031593;29;20572;-70
2022/11/14 03:00:52;;;;;;;34.00;22.50;;;6.70;99.90;;;;;;2031345;29;20106;-69
2022/11/14 03:02:11;;;;;;;36.88;23.77;;;6.60;99.90;;;;;;2031478;29;20040;-71
2022/11/14 03:03:30;;;;;;;35.58;23.25;;;6.60;99.90;;;;;;2031499;29;20466;-71
2022/11/14 03:04:50;;;;;;;34.55;22.98;;;6.60;99.90;;;;;;2031559;29;20403;-70
2022/11/14 03:06:09;;;;;;;34.30;22.40;;;6.60;99.90;;;;;;2031570;29;20044;-69
2022/11/14 03:07:29;;;;;;;37.63;24.85;;;6.60;99.90;;;;;;2031473;29;20032;-70
2022/11/14 03:08:48;;;;;;;40.15;25.50;;;6.60;99.90;;;;;;2031664;29;20044;-70
2022/11/14 03:10:08;;;;;;;38.45;25.20;;;6.70;99.90;;;;;;2031640;29;20047;-69
2022/11/14 03:11:27;;;;;;;37.78;24.65;;;6.60;99.90;;;;;;2031380;29;20036;-70
2022/11/14 03:12:46;;;;;;;41.45;25.98;;;6.70;99.90;;;;;;2031579;29;20475;-69
2022/11/14 03:14:05;;;;;;;37.63;24.40;;;6.60;99.90;;;;;;2031366;29;20044;-69
2022/11/14 03:15:24;;;;;;;39.15;25.25;;;6.60;99.90;;;;;;2031399;29;20044;-69
2022/11/14 03:16:43;;;;;;;35.35;23.75;;;6.70;99.90;;;;;;2031564;29;20107;-70
2022/11/14 03:18:02;;;;;;;41.90;24.35;;;6.70;99.90;;;;;;2031382;29;20075;-69
2022/11/14 03:19:22;;;;;;;37.75;24.02;;;6.70;99.90;;;;;;2032162;29;20032;-71
2022/11/14 03:20:41;;;;;;;40.67;24.90;;;6.70;99.90;;;;;;2032447;29;20410;-70
2022/11/14 03:22:00;;;;;;;39.45;25.25;;;6.70;99.90;;;;;;2032723;29;20031;-69
2022/11/14 03:23:19;;;;;;;40.80;25.63;;;6.70;99.90;;;;;;2032918;29;20044;-71
2022/11/14 03:24:38;;;;;;;43.75;26.80;;;6.70;99.90;;;;;;2033038;29;20032;-72
2022/11/14 03:26:02;;;;;;;40.25;25.38;;;6.70;99.90;;;;;;2032960;29;20036;-70
2022/11/14 03:27:20;;;;;;;39.90;25.40;;;6.80;99.90;;;;;;2032989;29;20032;-70
2022/11/14 03:28:40;;;;;;;36.67;23.75;;;6.80;99.90;;;;;;2032927;29;20047;-70
2022/11/14 03:29:59;;;;;;;42.00;26.45;;;6.70;99.90;;;;;;2033182;29;20032;-70
2022/11/14 03:31:18;;;;;;;43.53;25.27;;;6.80;99.90;;;;;;2032920;29;20519;-69
2022/11/14 03:32:37;;;;;;;41.53;26.52;;;6.80;99.90;;;;;;2033117;29;20056;-69
2022/11/14 03:33:57;;;;;;;43.95;26.05;;;6.90;99.90;;;;;;2032846;29;20044;-69
2022/11/14 03:35:16;;;;;;;38.63;24.98;;;7.00;99.90;;;;;;2033007;29;20107;-69
2022/11/14 03:36:35;;;;;;;37.25;24.27;;;7.00;99.90;;;;;;2032783;29;20060;-69
2022/11/14 03:37:54;;;;;;;40.55;25.63;;;7.00;99.90;;;;;;2032859;29;20052;-70
2022/11/14 03:39:14;;;;;;;39.85;25.02;;;7.00;99.90;;;;;;2032887;29;20040;-69
2022/11/14 03:40:33;;;;;;;41.00;25.75;;;7.10;99.90;;;;;;2032646;29;20534;-69
2022/11/14 03:41:52;;;;;;;42.50;26.02;;;7.10;99.90;;;;;;2032832;29;20036;-69
2022/11/14 03:43:11;;;;;;;39.67;25.48;;;7.10;99.90;;;;;;2032842;29;20032;-69
2022/11/14 03:44:31;;;;;;;38.10;25.40;;;7.20;99.90;;;;;;2032665;29;20044;-70
2022/11/14 03:45:50;;;;;;;43.63;26.48;;;7.20;99.90;;;;;;2032775;29;20651;-70
2022/11/14 03:47:09;;;;;;;39.47;25.75;;;7.20;99.90;;;;;;2032552;29;20032;-69
2022/11/14 03:48:29;;;;;;;40.33;25.88;;;7.30;99.90;;;;;;2032616;29;20075;-69
2022/11/14 03:49:49;;;;;;;39.95;25.52;;;7.30;99.90;;;;;;2032831;29;20028;-68
2022/11/14 03:51:08;;;;;;;39.60;25.48;;;7.30;99.90;;;;;;2032419;29;20036;-68
2022/11/14 03:52:27;;;;;;;39.53;24.58;;;7.40;99.90;;;;;;2032603;29;20028;-68
2022/11/14 03:53:48;;;;;;;40.03;25.60;;;7.40;99.90;;;;;;2033014;29;20040;-68
2022/11/14 03:55:08;;;;;;;38.75;24.92;;;7.50;99.90;;;;;;2033453;29;20024;-68
2022/11/14 03:56:27;;;;;;;38.40;24.38;;;7.50;99.90;;;;;;2032187;29;20052;-69
2022/11/14 03:57:47;;;;;;;37.85;24.83;;;7.50;99.90;;;;;;2032555;29;20036;-68
2022/11/14 03:59:06;;;;;;;41.17;24.95;;;7.50;99.90;;;;;;2032439;29;20040;-68
2022/11/14 04:00:27;;;;;;;40.58;25.08;;;7.50;99.90;;;;;;2032605;29;20028;-68
2022/11/14 04:01:47;;;;;;;36.80;23.65;;;7.50;99.90;;;;;;2032691;29;20040;-68
2022/11/14 04:03:07;;;;;;;38.42;24.77;;;7.50;99.90;;;;;;2032239;29;20033;-68
2022/11/14 04:04:26;;;;;;;39.03;25.05;;;7.50;99.90;;;;;;2032364;29;20040;-68
2022/11/14 04:05:45;;;;;;;37.83;23.75;;;7.60;99.90;;;;;;2032669;29;20040;-68
2022/11/14 04:07:05;;;;;;;37.38;24.20;;;7.60;99.90;;;;;;2032406;29;20674;-69
2022/11/14 04:08:24;;;;;;;37.03;23.77;;;7.60;99.90;;;;;;2032566;29;20028;-70
2022/11/14 04:09:45;;;;;;;36.80;23.55;;;7.60;99.90;;;;;;2031961;29;20047;-69
2022/11/14 04:11:05;;;;;;;39.33;23.55;;;7.60;99.90;;;;;;2032210;29;20055;-70
2022/11/14 04:12:24;;;;;;;36.70;23.80;;;7.60;99.90;;;;;;2032697;29;20736;-69
2022/11/14 04:13:44;;;;;;;36.47;23.55;;;7.60;99.90;;;;;;2032050;29;20035;-70
2022/11/14 04:15:04;;;;;;;36.80;24.17;;;7.60;99.90;;;;;;2032354;29;20040;-70
2022/11/14 04:16:23;;;;;;;33.08;22.92;;;7.60;99.90;;;;;;2032039;29;20080;-69
2022/11/14 04:17:43;;;;;;;36.30;23.60;;;7.60;99.90;;;;;;2032266;29;20068;-70
2022/11/14 04:19:02;;;;;;;38.10;24.70;;;7.50;99.90;;;;;;2032516;29;20728;-70
2022/11/14 04:20:21;;;;;;;37.97;24.27;;;7.40;99.90;;;;;;2032394;29;20033;-70
2022/11/14 04:21:40;;;;;;;35.10;23.33;;;7.50;99.90;;;;;;2032464;29;20411;-70
2022/11/14 04:22:59;;;;;;;37.85;24.60;;;7.50;99.90;;;;;;2032419;29;20025;-70
2022/11/14 04:24:19;;;;;;;37.00;24.52;;;7.50;99.90;;;;;;2032249;29;20048;-70
2022/11/14 04:25:38;;;;;;;39.47;25.08;;;7.50;99.90;;;;;;2032501;29;20060;-70
2022/11/14 04:26:57;;;;;;;33.90;23.45;;;7.60;99.90;;;;;;2032471;29;20044;-70
2022/11/14 04:28:16;;;;;;;37.72;24.33;;;7.60;99.90;;;;;;2032461;29;20044;-70
2022/11/14 04:29:35;;;;;;;36.72;24.27;;;7.50;99.90;;;;;;2032553;29;20040;-70
2022/11/14 04:30:54;;;;;;;36.50;24.52;;;7.60;99.90;;;;;;2031628;29;20036;-70
2022/11/14 04:32:13;;;;;;;36.95;24.63;;;7.50;99.90;;;;;;2032290;29;20040;-70
2022/11/14 04:33:32;;;;;;;35.97;23.30;;;7.50;99.90;;;;;;2032456;29;20099;-70
2022/11/14 04:34:51;;;;;;;37.00;23.85;;;7.50;99.90;;;;;;2032486;29;20048;-70
2022/11/14 04:36:10;;;;;;;40.72;25.88;;;7.50;99.90;;;;;;2032425;29;20791;-74
2022/11/14 04:37:29;;;;;;;40.40;25.38;;;7.50;99.90;;;;;;2032381;29;20052;-71
2022/11/14 04:38:48;;;;;;;38.70;24.80;;;7.50;99.90;;;;;;2036422;29;20028;-69
2022/11/14 04:40:08;;;;;;;39.58;25.42;;;7.50;99.90;;;;;;2040268;29;20047;-70
2022/11/14 04:41:27;;;;;;;38.90;24.50;;;7.50;99.90;;;;;;2039893;29;20035;-69
2022/11/14 04:42:47;;;;;;;36.35;23.70;;;7.60;99.90;;;;;;2040155;29;20063;-70
2022/11/14 04:44:06;;;;;;;38.85;24.65;;;7.50;99.90;;;;;;2039850;29;20036;-70
2022/11/14 04:45:26;;;;;;;36.15;24.10;;;7.50;99.90;;;;;;2040146;29;20044;-69
2022/11/14 04:46:45;;;;;;;36.58;24.33;;;7.50;99.90;;;;;;2040019;29;20067;-68
2022/11/14 04:48:04;;;;;;;34.25;23.50;;;7.50;99.90;;;;;;2040162;29;20035;-68
2022/11/14 04:49:24;;;;;;;39.55;24.67;;;7.50;99.90;;;;;;2040295;29;20044;-68
2022/11/14 04:50:45;;;;;;;37.28;23.55;;;7.50;99.90;;;;;;2039907;29;20055;-68
2022/11/14 04:52:04;;;;;;;35.53;23.77;;;7.50;99.90;;;;;;2040199;29;20044;-68
2022/11/14 04:53:23;;;;;;;39.05;24.77;;;7.50;99.90;;;;;;2040202;29;20035;-68
2022/11/14 04:54:42;;;;;;;34.92;24.10;;;7.50;99.90;;;;;;2040029;29;20581;-69
2022/11/14 04:56:01;;;;;;;37.20;24.23;;;7.50;99.90;;;;;;2039514;29;20031;-69
2022/11/14 04:57:20;;;;;;;37.08;24.85;;;7.40;99.90;;;;;;2039892;29;20044;-68
2022/11/14 04:58:39;;;;;;;38.88;25.45;;;7.50;99.90;;;;;;2040252;29;20043;-68
2022/11/14 04:59:58;;;;;;;39.30;25.25;;;7.50;99.90;;;;;;2039974;29;20487;-68
2022/11/14 05:01:17;;;;;;;37.30;25.33;;;7.50;99.90;;;;;;2039762;29;20517;-68
2022/11/14 05:02:37;;;;;;;39.30;25.48;;;7.50;99.90;;;;;;2039998;29;20043;-68
2022/11/14 05:03:56;;;;;;;38.40;25.13;;;7.60;99.90;;;;;;2039891;29;20119;-68
2022/11/14 05:05:15;;;;;;;40.08;25.15;;;7.60;99.90;;;;;;2039297;29;20039;-68
2022/11/14 05:06:34;;;;;;;37.30;24.13;;;7.60;99.90;;;;;;2039593;29;20039;-71
2022/11/14 05:07:54;;;;;;;42.55;26.23;;;7.60;99.90;;;;;;2039870;29;20043;-68
2022/11/14 05:09:13;;;;;;;38.45;25.50;;;7.60;99.90;;;;;;2040300;29;20625;-70
2022/11/14 05:10:32;;;;;;;36.92;24.40;;;7.60;99.90;;;;;;2039569;29;20031;-68
2022/11/14 05:11:51;;;;;;;37.47;24.70;;;7.60;99.90;;;;;;2039694;29;20123;-69
2022/11/14 05:13:11;;;;;;;38.45;24.88;;;7.60;99.90;;;;;;2039952;29;20031;-70
2022/11/14 05:14:30;;;;;;;39.85;24.92;;;7.50;99.90;;;;;;2039771;29;20043;-69
2022/11/14 05:15:49;;;;;;;41.03;25.95;;;7.60;99.90;;;;;;2039836;29;20053;-70
2022/11/14 05:17:09;;;;;;;37.97;24.88;;;7.50;99.90;;;;;;2039823;29;20055;-69
2022/11/14 05:18:28;;;;;;;37.70;24.58;;;7.60;99.90;;;;;;2039780;29;20031;-71
2022/11/14 05:19:47;;;;;;;37.95;24.55;;;7.50;99.90;;;;;;2039905;29;20039;-72
2022/11/14 05:21:09;;;;;;;43.67;25.20;;;7.50;99.90;;;;;;2039022;29;20039;-71
2022/11/14 05:22:29;;;;;;;38.08;24.85;;;7.60;99.90;;;;;;2039699;29;20039;-71
2022/11/14 05:23:48;;;;;;;38.75;24.75;;;7.60;99.90;;;;;;2039799;29;20059;-71
2022/11/14 05:25:08;;;;;;;40.05;25.33;;;7.60;99.90;;;;;;2040041;29;20076;-71
2022/11/14 05:26:27;;;;;;;37.65;24.52;;;7.60;99.90;;;;;;2039756;29;20421;-71
2022/11/14 05:27:46;;;;;;;38.88;24.77;;;7.60;99.90;;;;;;2039686;29;20039;-71
2022/11/14 05:29:05;;;;;;;36.90;24.50;;;7.60;99.90;;;;;;2039789;29;20032;-71
2022/11/14 05:30:25;;;;;;;37.60;24.80;;;7.60;99.90;;;;;;2039770;29;20035;-70
2022/11/14 05:31:44;;;;;;;36.90;24.70;;;7.60;99.90;;;;;;2039819;29;20032;-70
2022/11/14 05:33:03;;;;;;;39.88;26.00;;;7.70;99.90;;;;;;2039724;29;20458;-70
2022/11/14 05:34:23;;;;;;;40.10;25.38;;;7.60;99.90;;;;;;2039633;29;20031;-70
2022/11/14 05:35:43;;;;;;;38.83;24.65;;;7.60;99.90;;;;;;2039732;29;20039;-71
2022/11/14 05:37:02;;;;;;;38.05;24.98;;;7.60;99.90;;;;;;2039908;29;20615;-71
2022/11/14 05:38:22;;;;;;;43.42;27.13;;;7.50;99.90;;;;;;2039892;29;20139;-70
2022/11/14 05:39:41;;;;;;;40.38;25.05;;;7.50;99.90;;;;;;2035129;29;20079;-71
2022/11/14 05:41:15;;;;;;;39.95;25.35;;;7.50;99.90;;;;;;2032074;29;20052;-71
2022/11/14 05:42:34;;;;;;;40.15;24.65;;;7.50;99.90;;;;;;2031391;29;20538;-70
2022/11/14 05:43:53;;;;;;;40.55;25.45;;;7.50;99.90;;;;;;2031607;29;20052;-70
2022/11/14 05:45:12;;;;;;;39.72;25.13;;;7.50;99.90;;;;;;2037368;29;20036;-72
2022/11/14 05:46:31;;;;;;;43.35;26.25;;;7.40;99.90;;;;;;2039465;29;20036;-71
2022/11/14 05:47:54;;;;;;;40.72;25.85;;;7.40;99.90;;;;;;2039646;29;20048;-69
2022/11/14 05:49:14;;;;;;;41.55;26.23;;;7.40;99.90;;;;;;2039835;29;20035;-69
2022/11/14 05:50:33;;;;;;;40.72;26.67;;;7.50;99.90;;;;;;2039361;29;20119;-69
2022/11/14 05:51:52;;;;;;;42.40;27.52;;;7.40;99.90;;;;;;2039680;29;20028;-70
2022/11/14 05:53:11;;;;;;;41.45;26.65;;;7.50;99.90;;;;;;2039418;29;20486;-69
2022/11/14 05:54:30;;;;;;;40.10;26.05;;;7.50;99.90;;;;;;2039566;29;20040;-74
2022/11/14 05:55:49;;;;;;;40.80;26.27;;;7.40;99.90;;;;;;2039780;29;20039;-70
2022/11/14 05:57:08;;;;;;;41.17;26.00;;;7.50;99.90;;;;;;2039747;29;20036;-70
2022/11/14 05:58:27;;;;;;;40.40;26.33;;;7.40;99.90;;;;;;2039576;29;20039;-69
2022/11/14 05:59:47;;;;;;;39.88;26.00;;;7.50;99.90;;;;;;2039831;29;20036;-69
2022/11/14 06:01:08;;;;;;;42.65;26.98;;;7.50;99.90;;;;;;2047100;29;20534;-69
2022/11/14 06:02:27;;;;;;;43.97;26.42;;;7.40;99.90;;;;;;2042717;29;20035;-69
2022/11/14 06:03:47;;;;;;;40.22;26.50;;;7.40;99.90;;;;;;2039625;29;20051;-69
2022/11/14 06:05:07;;;;;;;39.27;25.50;;;7.40;99.90;;;;;;2047418;29;20035;-69
2022/11/14 06:06:26;;;;;;;41.77;26.37;;;7.40;99.90;;;;;;2042619;29;20304;-69
2022/11/14 06:07:45;;;;;;;41.47;27.42;;;7.30;99.90;;;;;;2039488;29;20267;-70
2022/11/14 06:09:05;;;;;;;41.65;27.08;;;7.40;99.90;;;;;;2039351;29;20040;-69
2022/11/14 06:10:25;;;;;;;42.65;27.67;;;7.40;99.90;;;;;;2039763;29;20028;-69
2022/11/14 06:11:44;;;;;;;47.05;29.50;;;7.40;99.90;;;;;;2039944;29;20498;-70
2022/11/14 06:13:03;;;;;;;44.83;28.42;;;7.40;99.90;;;;;;2039392;29;20036;-70
2022/11/14 06:14:22;;;;;;;44.53;26.95;;;7.40;99.90;;;;;;2038880;29;20040;-71
2022/11/14 06:15:41;;;;;;;42.13;27.00;;;7.40;99.90;;;;;;2039213;29;20035;-71
2022/11/14 06:17:01;;;;;;;40.05;26.15;;;7.40;99.90;;;;;;2039367;29;20561;-68
2022/11/14 06:18:20;;;;;;;41.95;26.95;;;7.40;99.90;;;;;;2039388;29;20039;-69
2022/11/14 06:19:39;;;;;;;43.55;27.08;;;7.40;99.90;;;;;;2046852;29;20031;-69
2022/11/14 06:21:07;;;;;;;48.22;27.52;;;7.30;99.90;;;;;;2042083;29;20047;-69
2022/11/14 06:22:26;;;;;;;46.10;28.33;;;7.40;99.90;;;;;;2039712;29;20024;-69
2022/11/14 06:23:45;;;;;;;41.65;26.83;;;7.40;99.90;;;;;;2039581;29;20114;-69
2022/11/14 06:25:05;;;;;;;43.53;28.05;;;7.50;99.90;;;;;;2039607;29;20044;-70
2022/11/14 06:26:30;;;;;;;41.58;27.13;;;7.50;99.90;;;;;;2039731;29;20415;-69
2022/11/14 06:27:49;;;;;;;44.75;28.45;;;7.50;99.90;;;;;;2039739;29;20040;-69
2022/11/14 06:29:09;;;;;;;44.10;27.13;;;7.50;99.90;;;;;;2039760;29;20051;-69
2022/11/14 06:30:28;;;;;;;44.15;28.48;;;7.50;99.90;;;;;;2039678;29;20035;-69
2022/11/14 06:31:47;;;;;;;46.47;27.88;;;7.50;99.90;;;;;;2039927;29;20040;-71
2022/11/14 06:33:06;;;;;;;44.33;28.10;;;7.50;99.90;;;;;;2040109;29;20060;-70
2022/11/14 06:34:26;;;;;;;45.05;28.77;;;7.50;99.90;;;;;;2039368;29;20044;-70
2022/11/14 06:35:45;;;;;;;44.58;27.75;;;7.50;99.90;;;;;;2039699;29;20032;-70
2022/11/14 06:37:04;;;;;;;44.40;28.45;;;7.50;99.90;;;;;;2046686;29;20074;-70
2022/11/14 06:38:24;;;;;;;47.63;28.08;;;7.50;99.90;;;;;;2042661;28;20032;-71
2022/11/14 06:39:43;;;;;;;44.70;28.33;;;7.50;99.90;;;;;;2039989;29;20043;-70
2022/11/14 06:41:10;;;;;;;41.22;27.13;;;7.50;99.90;;;;;;2039752;29;20039;-71
2022/11/14 06:42:30;;;;;;;45.40;29.13;;;7.50;99.90;;;;;;2040052;29;20040;-70
2022/11/14 06:43:51;;;;;;;48.92;28.48;;;7.50;99.90;;;;;;2040195;29;20489;-71
2022/11/14 06:45:10;;;;;;;44.05;28.48;;;7.50;99.90;;;;;;2040012;29;20070;-69
2022/11/14 06:46:29;;;;;;;43.72;28.75;;;7.50;99.90;;;;;;2040127;29;20499;-69
2022/11/14 06:47:48;;;;;;;48.17;29.02;;;7.50;99.90;;;;;;2039660;29;20036;-69
2022/11/14 06:49:08;;;;;;;42.55;28.13;;;7.50;99.90;;;;;;2039621;29;20469;-69